KGSB/GSB METAR and TAF weather

Enter ICAO airport designator
Station Type Date Time Source
KGSB METAR 2019/08/19 07:56 UTC NOAA

KGSB 190756Z AUTO 22004KT 10SM CLR 25/25 A3000 RMK AO2 SLP161 T02500246 $


Station Type Date Time Source
KGSB Decoded METAR 2019/08/19 07:56 UTC NOAA

Station name not available
Aug 19, 2019 - 03:56 AM EDT / 2019.08.19 0756 UTC
Wind: from the SW (220 degrees) at 5 MPH (4 KT):0
Visibility: 10 mile(s):0
Sky conditions: clear
Temperature: 77.0 F (25.0 C)
Dew Point: 76.3 F (24.6 C)
Relative Humidity: 97%
Pressure (altimeter): 30 in. Hg (1015 hPa)
ob: KGSB 190756Z AUTO 22004KT 10SM CLR 25/25 A3000 RMK AO2 SLP161 T02500246
cycle: 8

Station Type Date Time Source
KGSB TAF 2019/08/19 04:08 UTC NOAA

TAF KGSB 190400Z 1904/2010 19006KT 9999 FEW050 QNH3001INS
TEMPO 1909/1912 4800 BR
BECMG 1918/1919 19009KT 9999 VCTS BKN045CB QNH2999INS
TEMPO 1922/1924 8000 -TSRA
BECMG 2002/2003 20006KT 9999 NSW SCT050 QNH3005INS TX32/1918Z TN24/1909Z

Example: see airport list